createdAt,value
2019-05-20T00:04:43.944Z,93.40
2019-05-20T00:09:48.815Z,93.64
2019-05-20T00:14:53.590Z,93.79
2019-05-20T00:19:58.372Z,93.84
2019-05-20T00:25:03.107Z,93.79
2019-05-20T00:30:09.227Z,93.94
2019-05-20T00:35:14.005Z,93.97
2019-05-20T00:45:29.262Z,94.39
2019-05-20T00:50:34.648Z,94.53
2019-05-20T00:55:40.471Z,94.66
2019-05-20T01:00:45.413Z,94.72
2019-05-20T01:05:50.090Z,94.61
2019-05-20T01:10:54.800Z,94.81
2019-05-20T01:15:59.389Z,95.06
2019-05-20T01:21:04.442Z,95.25
2019-05-20T01:26:09.722Z,95.32
2019-05-20T01:31:14.292Z,95.58
2019-05-20T01:36:19.369Z,95.86
2019-05-20T01:41:24.368Z,95.90
2019-05-20T01:46:29.268Z,95.96
2019-05-20T01:51:34.479Z,96.05
2019-05-20T01:56:39.408Z,95.87
2019-05-20T02:01:44.049Z,95.66
2019-05-20T02:06:48.543Z,95.77
2019-05-20T02:11:53.273Z,95.50
2019-05-20T02:16:57.905Z,95.25
2019-05-20T02:22:02.694Z,95.14
2019-05-20T02:27:07.418Z,95.08
2019-05-20T02:32:12.083Z,95.25
2019-05-20T02:37:16.751Z,94.88
2019-05-20T02:42:21.456Z,94.76
2019-05-20T02:47:26.419Z,94.73
2019-05-20T02:52:31.062Z,94.90
2019-05-20T02:57:36.344Z,94.73
2019-05-20T03:02:41.285Z,94.59
2019-05-20T03:07:45.996Z,94.31
2019-05-20T03:12:50.714Z,94.44
2019-05-20T03:17:55.313Z,94.34
2019-05-20T03:23:00.210Z,94.23
2019-05-20T03:28:05.764Z,94.40
2019-05-20T03:33:10.478Z,94.03
2019-05-20T03:38:15.495Z,93.90
2019-05-20T03:43:20.082Z,93.94
2019-05-20T03:48:25.294Z,93.82
2019-05-20T03:53:30.169Z,94.29
2019-05-20T03:58:35.283Z,94.57
2019-05-20T04:03:39.816Z,94.87
2019-05-20T04:08:45.961Z,94.94
2019-05-20T04:13:50.674Z,95.17
2019-05-20T04:18:55.908Z,94.65
2019-05-20T04:24:02.076Z,94.63
2019-05-20T04:29:07.719Z,94.66
2019-05-20T04:34:12.781Z,94.48
2019-05-20T04:39:17.740Z,94.43
2019-05-20T04:44:22.446Z,94.47
2019-05-20T04:49:27.145Z,94.34
2019-05-20T04:54:32.385Z,94.52
2019-05-20T04:59:37.119Z,94.06
2019-05-20T05:04:41.801Z,94.22
2019-05-20T05:09:46.538Z,94.47
2019-05-20T05:14:51.452Z,94.59
2019-05-20T05:19:56.493Z,94.27
2019-05-20T05:25:01.133Z,94.73
2019-05-20T05:30:06.713Z,94.87
2019-05-20T05:35:14.334Z,94.89
2019-05-20T05:40:19.498Z,94.90
2019-05-20T05:45:29.920Z,95.29
2019-05-20T05:50:34.935Z,95.36
2019-05-20T05:55:40.898Z,95.76
2019-05-20T06:00:46.231Z,95.92
2019-05-20T06:05:50.928Z,96.06
2019-05-20T06:10:55.696Z,96.00
2019-05-20T06:16:00.875Z,95.93
2019-05-20T06:21:05.670Z,95.83
2019-05-20T06:26:10.969Z,95.66
2019-05-20T06:31:15.778Z,95.56
2019-05-20T06:36:26.846Z,95.24
2019-05-20T06:41:27.619Z,94.60
2019-05-20T06:46:32.978Z,93.40
2019-05-20T06:51:37.678Z,93.40
2019-05-20T06:56:43.418Z,93.72
2019-05-20T07:01:48.312Z,93.72
2019-05-20T07:06:52.944Z,93.30
2019-05-20T07:11:57.794Z,92.77
2019-05-20T07:17:03.377Z,91.87
2019-05-20T07:22:08.069Z,90.89
2019-05-20T07:27:13.003Z,90.55
2019-05-20T07:32:17.933Z,90.13
2019-05-20T07:38:55.003Z,89.62
2019-05-20T07:57:12.328Z,87.91
2019-05-20T08:02:31.866Z,85.75
2019-05-20T08:07:51.206Z,83.29
2019-05-20T08:12:45.038Z,81.90
2019-05-20T08:17:49.795Z,79.20
2019-05-20T08:22:54.973Z,77.85
2019-05-20T08:27:59.863Z,75.39
2019-05-20T08:33:04.838Z,73.19
2019-05-20T08:38:10.431Z,72.58
2019-05-20T08:43:15.537Z,70.24
2019-05-20T08:48:20.399Z,71.55
2019-05-20T08:53:24.980Z,70.66
2019-05-20T08:58:30.200Z,70.52
2019-05-20T09:03:35.503Z,68.91
2019-05-20T09:08:40.209Z,67.37
2019-05-20T09:13:45.515Z,66.70
2019-05-20T09:18:51.013Z,66.94
2019-05-20T09:23:55.544Z,66.64
2019-05-20T09:29:00.392Z,65.33
2019-05-20T09:34:05.419Z,63.72
2019-05-20T09:39:10.432Z,64.10
2019-05-20T09:44:15.143Z,62.07
2019-05-20T09:49:20.263Z,61.41
2019-05-20T09:54:24.843Z,61.87
2019-05-20T09:59:42.884Z,61.31
2019-05-20T10:04:36.785Z,60.37
2019-05-20T10:09:41.481Z,59.41
2019-05-20T10:14:46.178Z,60.29
2019-05-20T10:19:50.954Z,60.23
2019-05-20T10:24:56.139Z,61.03
2019-05-20T10:30:01.554Z,60.31
2019-05-20T10:35:06.604Z,57.75
2019-05-20T10:40:11.563Z,57.90
2019-05-20T10:45:16.630Z,59.75
2019-05-20T10:50:21.555Z,59.40
2019-05-20T10:55:26.198Z,61.59
2019-05-20T11:00:31.003Z,63.05
2019-05-20T11:05:35.572Z,64.95
2019-05-20T11:10:40.215Z,64.90
2019-05-20T11:15:44.813Z,65.52
2019-05-20T11:20:49.930Z,60.34
2019-05-20T11:25:54.703Z,63.33
2019-05-20T11:30:59.964Z,64.14
2019-05-20T11:36:04.754Z,60.24
2019-05-20T11:41:10.726Z,61.79
2019-05-20T11:46:15.453Z,59.63
2019-05-20T11:51:20.155Z,60.34
2019-05-20T11:56:24.849Z,60.11
2019-05-20T12:01:29.606Z,60.72
2019-05-20T12:06:34.584Z,63.14
2019-05-20T12:11:39.406Z,63.96
2019-05-20T12:16:44.184Z,62.55
2019-05-20T12:21:49.018Z,61.32
2019-05-20T12:26:53.669Z,59.32
2019-05-20T12:32:03.214Z,57.31
2019-05-20T12:37:05.687Z,60.63
2019-05-20T12:42:10.627Z,56.87
2019-05-20T12:47:15.850Z,56.78
2019-05-20T12:52:20.527Z,55.98
2019-05-20T12:57:25.300Z,56.02
2019-05-20T13:02:30.075Z,51.80
2019-05-20T13:07:34.713Z,53.12
2019-05-20T13:12:39.497Z,51.83
2019-05-20T13:17:45.331Z,52.14
2019-05-20T13:22:51.103Z,52.88
2019-05-20T13:27:56.273Z,52.32
2019-05-20T13:33:01.490Z,55.46
2019-05-20T13:38:06.052Z,54.89
2019-05-20T13:43:10.909Z,53.90
2019-05-20T13:48:15.594Z,54.83
2019-05-20T13:53:20.463Z,61.18
2019-05-20T13:58:26.064Z,57.53
2019-05-20T14:03:30.738Z,58.35
2019-05-20T14:08:35.449Z,60.12
2019-05-20T14:13:40.325Z,59.23
2019-05-20T14:18:45.513Z,62.06
2019-05-20T14:23:50.881Z,59.15
2019-05-20T14:28:55.625Z,62.05
2019-05-20T14:34:00.378Z,61.89
2019-05-20T14:39:06.687Z,62.26
2019-05-20T14:44:11.467Z,63.41
2019-05-20T14:49:16.083Z,63.50
2019-05-20T14:54:20.705Z,61.35
2019-05-20T14:59:25.289Z,61.26
2019-05-20T15:04:30.814Z,63.38
2019-05-20T15:09:35.548Z,62.61
2019-05-20T15:14:42.575Z,65.35
2019-05-20T15:19:46.918Z,66.08
2019-05-20T15:24:51.900Z,67.70
2019-05-20T15:29:56.560Z,67.87
2019-05-20T15:35:01.577Z,68.32
2019-05-20T15:40:06.714Z,68.99
2019-05-20T15:45:12.834Z,69.21
2019-05-20T15:50:17.559Z,69.54
2019-05-20T15:55:22.279Z,70.51
2019-05-20T16:00:26.850Z,70.79
2019-05-20T16:05:31.647Z,71.88
2019-05-20T16:10:36.403Z,71.93
2019-05-20T16:15:41.059Z,72.13
2019-05-20T16:20:45.713Z,71.63
2019-05-20T16:25:50.451Z,71.63
2019-05-20T16:30:55.228Z,72.36
2019-05-20T16:35:59.935Z,73.22
2019-05-20T16:41:04.768Z,74.09
2019-05-20T16:46:09.655Z,74.70
2019-05-20T16:51:14.391Z,75.17
2019-05-20T16:56:19.039Z,76.23
2019-05-20T17:01:23.874Z,75.55
2019-05-20T17:06:28.580Z,76.05
2019-05-20T17:11:33.349Z,76.50
2019-05-20T17:16:38.223Z,77.11
2019-05-20T17:21:43.050Z,77.90
2019-05-20T17:26:47.798Z,78.02
2019-05-20T17:31:52.404Z,78.38
2019-05-20T17:36:57.129Z,79.47
2019-05-20T17:42:01.987Z,79.10
2019-05-20T17:47:06.794Z,78.39
2019-05-20T17:52:11.618Z,77.92
2019-05-20T17:57:16.265Z,77.48
2019-05-20T18:02:20.930Z,77.56
2019-05-20T18:07:25.760Z,77.77
2019-05-20T18:12:30.363Z,78.81
2019-05-20T18:17:35.294Z,77.58
2019-05-20T18:22:40.051Z,78.76
2019-05-20T18:27:44.768Z,79.94
2019-05-20T18:32:49.583Z,79.76
2019-05-20T18:37:54.350Z,79.82
2019-05-20T18:42:59.042Z,80.25
2019-05-20T18:48:03.657Z,80.01
2019-05-20T18:53:08.423Z,79.94
2019-05-20T18:58:13.132Z,80.61
2019-05-20T19:03:17.789Z,81.21
2019-05-20T19:08:25.551Z,81.76
2019-05-20T19:13:29.228Z,82.81
2019-05-20T19:18:33.898Z,83.86
2019-05-20T19:23:38.525Z,84.46
2019-05-20T19:28:43.351Z,85.11
2019-05-20T19:33:48.109Z,85.54
2019-05-20T19:38:52.851Z,85.54
2019-05-20T19:43:57.702Z,85.79
2019-05-20T19:49:02.453Z,86.18
2019-05-20T19:54:07.331Z,86.42
2019-05-20T19:59:12.178Z,86.67
2019-05-20T20:04:17.610Z,86.97
2019-05-20T20:09:22.279Z,87.21
2019-05-20T20:14:26.960Z,87.34
2019-05-20T20:19:31.766Z,87.54
2019-05-20T20:24:36.615Z,87.67
2019-05-20T20:29:42.119Z,87.84
2019-05-20T20:34:46.922Z,87.97
2019-05-20T20:39:51.652Z,88.20
2019-05-20T20:44:56.384Z,88.28
2019-05-20T20:50:01.361Z,88.50
2019-05-20T20:55:06.689Z,88.40
2019-05-20T21:00:11.987Z,87.88
2019-05-20T21:05:17.038Z,87.91
2019-05-20T21:10:21.759Z,87.76
2019-05-20T21:15:26.603Z,87.57
2019-05-20T21:20:31.434Z,87.59
2019-05-20T21:25:36.093Z,87.94
2019-05-20T21:30:41.970Z,88.06
2019-05-20T21:35:46.700Z,88.36
2019-05-20T21:40:51.309Z,88.48
2019-05-20T21:45:55.968Z,88.66
2019-05-20T21:51:00.602Z,88.80
2019-05-20T21:56:05.220Z,88.78
2019-05-20T22:01:09.966Z,88.63
2019-05-20T22:06:14.509Z,88.92
2019-05-20T22:11:19.279Z,88.95
2019-05-20T22:16:23.919Z,89.07
2019-05-20T22:21:33.395Z,89.17
2019-05-20T22:26:38.225Z,89.50
2019-05-20T22:31:42.879Z,89.68
2019-05-20T22:36:47.475Z,89.91
2019-05-20T22:41:52.092Z,90.05
2019-05-20T22:46:56.802Z,89.80
2019-05-20T22:52:01.511Z,90.03
2019-05-20T22:57:06.159Z,90.32
2019-05-20T23:02:10.714Z,90.41
2019-05-20T23:07:15.346Z,90.58
2019-05-20T23:12:19.978Z,90.63
2019-05-20T23:17:24.618Z,90.69
2019-05-20T23:22:29.417Z,90.77
2019-05-20T23:27:34.119Z,90.79
2019-05-20T23:32:38.960Z,90.75
2019-05-20T23:37:43.695Z,90.89
2019-05-20T23:42:48.332Z,91.13
2019-05-20T23:47:53.050Z,91.20
2019-05-20T23:52:57.755Z,91.25
